sensor_id;sensor_type;location;lat;lon;timestamp;temperature;humidity
9057;DHT22;4563;54.756;9.400;2023-04-24T00:01:35;15.50;64.70
9057;DHT22;4563;54.756;9.400;2023-04-24T00:04:03;15.40;64.70
9057;DHT22;4563;54.756;9.400;2023-04-24T00:06:30;15.40;64.80
9057;DHT22;4563;54.756;9.400;2023-04-24T00:08:59;15.40;65.00
9057;DHT22;4563;54.756;9.400;2023-04-24T00:11:26;15.40;65.10
9057;DHT22;4563;54.756;9.400;2023-04-24T00:13:53;15.40;65.20
9057;DHT22;4563;54.756;9.400;2023-04-24T00:16:20;15.30;65.30
9057;DHT22;4563;54.756;9.400;2023-04-24T00:18:47;15.30;65.60
9057;DHT22;4563;54.756;9.400;2023-04-24T00:21:15;15.30;65.70
9057;DHT22;4563;54.756;9.400;2023-04-24T00:23:43;15.30;65.80
9057;DHT22;4563;54.756;9.400;2023-04-24T00:26:10;15.30;65.80
9057;DHT22;4563;54.756;9.400;2023-04-24T00:28:36;15.30;66.00
9057;DHT22;4563;54.756;9.400;2023-04-24T00:31:03;15.30;66.20
9057;DHT22;4563;54.756;9.400;2023-04-24T00:33:30;15.30;66.30
9057;DHT22;4563;54.756;9.400;2023-04-24T00:35:57;15.30;66.40
9057;DHT22;4563;54.756;9.400;2023-04-24T00:38:27;15.30;66.50
9057;DHT22;4563;54.756;9.400;2023-04-24T00:40:54;15.30;67.40
9057;DHT22;4563;54.756;9.400;2023-04-24T00:43:21;15.20;66.60
9057;DHT22;4563;54.756;9.400;2023-04-24T00:45:48;15.30;66.80
9057;DHT22;4563;54.756;9.400;2023-04-24T00:48:14;15.20;66.70
9057;DHT22;4563;54.756;9.400;2023-04-24T00:50:42;15.20;66.80
9057;DHT22;4563;54.756;9.400;2023-04-24T00:53:08;15.20;66.90
9057;DHT22;4563;54.756;9.400;2023-04-24T00:55:37;15.20;66.90
9057;DHT22;4563;54.756;9.400;2023-04-24T00:58:04;15.20;67.00
9057;DHT22;4563;54.756;9.400;2023-04-24T01:00:31;15.20;67.00
9057;DHT22;4563;54.756;9.400;2023-04-24T01:02:59;15.20;67.10
9057;DHT22;4563;54.756;9.400;2023-04-24T01:05:28;15.20;67.20
9057;DHT22;4563;54.756;9.400;2023-04-24T01:07:55;15.20;67.20
9057;DHT22;4563;54.756;9.400;2023-04-24T01:10:23;15.20;67.30
9057;DHT22;4563;54.756;9.400;2023-04-24T01:12:52;15.20;67.40
9057;DHT22;4563;54.756;9.400;2023-04-24T01:15:19;15.20;67.40
9057;DHT22;4563;54.756;9.400;2023-04-24T01:17:46;15.20;67.40
9057;DHT22;4563;54.756;9.400;2023-04-24T01:20:13;15.20;67.50
9057;DHT22;4563;54.756;9.400;2023-04-24T01:22:42;15.20;67.60
9057;DHT22;4563;54.756;9.400;2023-04-24T01:25:09;15.20;67.70
9057;DHT22;4563;54.756;9.400;2023-04-24T01:27:36;15.20;67.70
9057;DHT22;4563;54.756;9.400;2023-04-24T01:30:05;15.20;67.80
9057;DHT22;4563;54.756;9.400;2023-04-24T01:32:33;15.10;67.80
9057;DHT22;4563;54.756;9.400;2023-04-24T01:35:00;15.10;67.80
9057;DHT22;4563;54.756;9.400;2023-04-24T01:37:27;15.10;67.90
9057;DHT22;4563;54.756;9.400;2023-04-24T01:39:55;15.10;67.90
9057;DHT22;4563;54.756;9.400;2023-04-24T01:42:22;15.10;68.00
9057;DHT22;4563;54.756;9.400;2023-04-24T01:44:49;15.10;68.10
9057;DHT22;4563;54.756;9.400;2023-04-24T01:47:16;15.10;68.20
9057;DHT22;4563;54.756;9.400;2023-04-24T01:49:43;15.10;68.20
9057;DHT22;4563;54.756;9.400;2023-04-24T01:52:12;15.10;68.20
9057;DHT22;4563;54.756;9.400;2023-04-24T01:54:39;15.10;68.10
9057;DHT22;4563;54.756;9.400;2023-04-24T01:57:07;15.00;68.10
9057;DHT22;4563;54.756;9.400;2023-04-24T01:59:34;15.00;68.10
9057;DHT22;4563;54.756;9.400;2023-04-24T02:02:01;15.00;68.20
9057;DHT22;4563;54.756;9.400;2023-04-24T02:04:28;15.00;68.20
9057;DHT22;4563;54.756;9.400;2023-04-24T02:06:55;15.00;68.30
9057;DHT22;4563;54.756;9.400;2023-04-24T02:09:22;15.00;68.30
9057;DHT22;4563;54.756;9.400;2023-04-24T02:11:49;15.00;68.40
9057;DHT22;4563;54.756;9.400;2023-04-24T02:14:17;15.00;68.50
9057;DHT22;4563;54.756;9.400;2023-04-24T02:16:44;15.00;68.50
9057;DHT22;4563;54.756;9.400;2023-04-24T02:19:11;15.00;68.50
9057;DHT22;4563;54.756;9.400;2023-04-24T02:21:38;15.00;68.50
9057;DHT22;4563;54.756;9.400;2023-04-24T02:24:04;15.00;68.60
9057;DHT22;4563;54.756;9.400;2023-04-24T02:26:31;15.00;68.60
9057;DHT22;4563;54.756;9.400;2023-04-24T02:28:58;14.90;68.60
9057;DHT22;4563;54.756;9.400;2023-04-24T02:31:26;14.90;68.70
9057;DHT22;4563;54.756;9.400;2023-04-24T02:33:53;14.90;68.80
9057;DHT22;4563;54.756;9.400;2023-04-24T02:36:21;14.90;68.70
9057;DHT22;4563;54.756;9.400;2023-04-24T02:38:48;14.90;68.90
9057;DHT22;4563;54.756;9.400;2023-04-24T02:41:15;14.90;68.80
9057;DHT22;4563;54.756;9.400;2023-04-24T02:43:41;14.90;69.60
9057;DHT22;4563;54.756;9.400;2023-04-24T02:46:08;14.90;68.90
9057;DHT22;4563;54.756;9.400;2023-04-24T02:48:36;14.90;68.90
9057;DHT22;4563;54.756;9.400;2023-04-24T02:51:03;14.90;68.90
9057;DHT22;4563;54.756;9.400;2023-04-24T02:53:30;14.80;68.80
9057;DHT22;4563;54.756;9.400;2023-04-24T02:55:57;14.80;68.90
9057;DHT22;4563;54.756;9.400;2023-04-24T02:58:24;14.80;69.60
9057;DHT22;4563;54.756;9.400;2023-04-24T03:00:54;14.90;69.00
9057;DHT22;4563;54.756;9.400;2023-04-24T03:03:21;14.80;69.00
9057;DHT22;4563;54.756;9.400;2023-04-24T03:05:50;14.90;69.10
9057;DHT22;4563;54.756;9.400;2023-04-24T03:08:17;14.80;69.00
9057;DHT22;4563;54.756;9.400;2023-04-24T03:10:44;14.90;69.10
9057;DHT22;4563;54.756;9.400;2023-04-24T03:13:11;14.80;69.10
9057;DHT22;4563;54.756;9.400;2023-04-24T03:15:37;14.80;69.10
9057;DHT22;4563;54.756;9.400;2023-04-24T03:18:04;14.80;69.10
9057;DHT22;4563;54.756;9.400;2023-04-24T03:20:33;14.80;69.10
9057;DHT22;4563;54.756;9.400;2023-04-24T03:23:03;14.80;69.20
9057;DHT22;4563;54.756;9.400;2023-04-24T03:25:30;14.80;69.30
9057;DHT22;4563;54.756;9.400;2023-04-24T03:27:57;14.80;69.20
9057;DHT22;4563;54.756;9.400;2023-04-24T03:30:24;14.80;69.20
9057;DHT22;4563;54.756;9.400;2023-04-24T03:32:51;14.80;69.30
9057;DHT22;4563;54.756;9.400;2023-04-24T03:35:18;14.80;69.30
9057;DHT22;4563;54.756;9.400;2023-04-24T03:37:45;14.80;69.40
9057;DHT22;4563;54.756;9.400;2023-04-24T03:40:13;14.80;69.40
9057;DHT22;4563;54.756;9.400;2023-04-24T03:42:40;14.80;69.50
9057;DHT22;4563;54.756;9.400;2023-04-24T03:45:08;14.70;69.30
9057;DHT22;4563;54.756;9.400;2023-04-24T03:47:35;14.80;69.50
9057;DHT22;4563;54.756;9.400;2023-04-24T03:50:01;14.80;69.50
9057;DHT22;4563;54.756;9.400;2023-04-24T03:52:28;14.70;69.40
9057;DHT22;4563;54.756;9.400;2023-04-24T03:54:55;14.80;69.50
9057;DHT22;4563;54.756;9.400;2023-04-24T03:57:23;14.80;69.50
9057;DHT22;4563;54.756;9.400;2023-04-24T03:59:50;14.70;69.60
9057;DHT22;4563;54.756;9.400;2023-04-24T04:02:19;14.70;69.50
9057;DHT22;4563;54.756;9.400;2023-04-24T04:04:45;14.70;69.50
9057;DHT22;4563;54.756;9.400;2023-04-24T04:07:12;14.70;69.70
9057;DHT22;4563;54.756;9.400;2023-04-24T04:09:39;14.70;69.60
9057;DHT22;4563;54.756;9.400;2023-04-24T04:12:06;14.70;69.60
9057;DHT22;4563;54.756;9.400;2023-04-24T04:14:34;14.70;69.60
9057;DHT22;4563;54.756;9.400;2023-04-24T04:17:01;14.70;69.70
9057;DHT22;4563;54.756;9.400;2023-04-24T04:19:27;14.70;70.50
9057;DHT22;4563;54.756;9.400;2023-04-24T04:21:54;14.70;70.80
9057;DHT22;4563;54.756;9.400;2023-04-24T04:24:21;14.70;71.70
9057;DHT22;4563;54.756;9.400;2023-04-24T04:26:49;14.70;71.00
9057;DHT22;4563;54.756;9.400;2023-04-24T04:29:17;14.70;71.30
9057;DHT22;4563;54.756;9.400;2023-04-24T04:31:45;14.70;71.50
9057;DHT22;4563;54.756;9.400;2023-04-24T04:34:12;14.70;71.60
9057;DHT22;4563;54.756;9.400;2023-04-24T04:36:40;14.70;71.80
9057;DHT22;4563;54.756;9.400;2023-04-24T04:39:06;14.70;72.00
9057;DHT22;4563;54.756;9.400;2023-04-24T04:41:33;14.70;72.00
9057;DHT22;4563;54.756;9.400;2023-04-24T04:44:01;14.70;71.80
9057;DHT22;4563;54.756;9.400;2023-04-24T04:46:30;14.60;71.70
9057;DHT22;4563;54.756;9.400;2023-04-24T04:48:59;14.60;72.00
9057;DHT22;4563;54.756;9.400;2023-04-24T04:51:26;14.60;72.10
9057;DHT22;4563;54.756;9.400;2023-04-24T04:53:53;14.60;71.90
9057;DHT22;4563;54.756;9.400;2023-04-24T04:56:20;14.60;71.60
9057;DHT22;4563;54.756;9.400;2023-04-24T04:58:47;14.60;71.60
9057;DHT22;4563;54.756;9.400;2023-04-24T05:01:14;14.60;71.60
9057;DHT22;4563;54.756;9.400;2023-04-24T05:03:41;14.50;71.00
9057;DHT22;4563;54.756;9.400;2023-04-24T05:06:09;14.50;71.40
9057;DHT22;4563;54.756;9.400;2023-04-24T05:08:36;14.50;71.20
9057;DHT22;4563;54.756;9.400;2023-04-24T05:11:03;14.50;71.00
9057;DHT22;4563;54.756;9.400;2023-04-24T05:13:29;14.40;70.50
9057;DHT22;4563;54.756;9.400;2023-04-24T05:15:59;14.40;70.60
9057;DHT22;4563;54.756;9.400;2023-04-24T05:18:26;14.50;70.90
9057;DHT22;4563;54.756;9.400;2023-04-24T05:20:53;14.40;70.40
9057;DHT22;4563;54.756;9.400;2023-04-24T05:23:21;14.50;70.70
9057;DHT22;4563;54.756;9.400;2023-04-24T05:25:48;14.50;70.60
9057;DHT22;4563;54.756;9.400;2023-04-24T05:28:15;14.40;70.40
9057;DHT22;4563;54.756;9.400;2023-04-24T05:30:42;14.40;70.30
9057;DHT22;4563;54.756;9.400;2023-04-24T05:33:08;14.40;70.40
9057;DHT22;4563;54.756;9.400;2023-04-24T05:35:35;14.40;70.40
9057;DHT22;4563;54.756;9.400;2023-04-24T05:38:02;14.40;70.10
9057;DHT22;4563;54.756;9.400;2023-04-24T05:40:30;14.30;70.00
9057;DHT22;4563;54.756;9.400;2023-04-24T05:42:57;14.20;69.90
9057;DHT22;4563;54.756;9.400;2023-04-24T05:45:24;14.20;70.10
9057;DHT22;4563;54.756;9.400;2023-04-24T05:47:51;14.20;69.90
9057;DHT22;4563;54.756;9.400;2023-04-24T05:50:18;14.20;70.10
9057;DHT22;4563;54.756;9.400;2023-04-24T05:52:45;14.10;69.80
9057;DHT22;4563;54.756;9.400;2023-04-24T05:55:12;14.10;69.80
9057;DHT22;4563;54.756;9.400;2023-04-24T05:57:40;14.10;70.10
9057;DHT22;4563;54.756;9.400;2023-04-24T06:00:11;14.10;70.20
9057;DHT22;4563;54.756;9.400;2023-04-24T06:02:39;14.10;70.30
9057;DHT22;4563;54.756;9.400;2023-04-24T06:05:07;14.10;70.40
9057;DHT22;4563;54.756;9.400;2023-04-24T06:07:37;14.10;70.50
9057;DHT22;4563;54.756;9.400;2023-04-24T06:10:05;14.10;70.50
9057;DHT22;4563;54.756;9.400;2023-04-24T06:12:32;14.10;70.50
9057;DHT22;4563;54.756;9.400;2023-04-24T06:15:00;14.00;70.30
9057;DHT22;4563;54.756;9.400;2023-04-24T06:17:28;14.00;70.40
9057;DHT22;4563;54.756;9.400;2023-04-24T06:19:55;14.00;70.50
9057;DHT22;4563;54.756;9.400;2023-04-24T06:22:21;14.00;70.50
9057;DHT22;4563;54.756;9.400;2023-04-24T06:24:48;14.00;70.70
9057;DHT22;4563;54.756;9.400;2023-04-24T06:27:15;13.90;70.50
9057;DHT22;4563;54.756;9.400;2023-04-24T06:29:42;14.00;70.70
9057;DHT22;4563;54.756;9.400;2023-04-24T06:32:10;14.00;70.90
9057;DHT22;4563;54.756;9.400;2023-04-24T06:34:37;14.00;71.10
9057;DHT22;4563;54.756;9.400;2023-04-24T06:37:04;14.00;71.10
9057;DHT22;4563;54.756;9.400;2023-04-24T06:39:30;13.90;71.00
9057;DHT22;4563;54.756;9.400;2023-04-24T06:41:58;13.90;71.10
9057;DHT22;4563;54.756;9.400;2023-04-24T06:44:24;13.90;71.00
9057;DHT22;4563;54.756;9.400;2023-04-24T06:46:51;13.90;71.10
9057;DHT22;4563;54.756;9.400;2023-04-24T06:49:20;13.90;71.30
9057;DHT22;4563;54.756;9.400;2023-04-24T06:51:47;13.90;71.40
9057;DHT22;4563;54.756;9.400;2023-04-24T06:54:14;13.80;71.20
9057;DHT22;4563;54.756;9.400;2023-04-24T06:56:41;13.90;71.10
9057;DHT22;4563;54.756;9.400;2023-04-24T06:59:08;13.80;71.20
9057;DHT22;4563;54.756;9.400;2023-04-24T07:01:35;13.90;71.50
9057;DHT22;4563;54.756;9.400;2023-04-24T07:04:02;13.90;72.20
9057;DHT22;4563;54.756;9.400;2023-04-24T07:06:30;13.80;71.60
9057;DHT22;4563;54.756;9.400;2023-04-24T07:08:58;13.90;71.60
9057;DHT22;4563;54.756;9.400;2023-04-24T07:11:25;13.90;72.50
9057;DHT22;4563;54.756;9.400;2023-04-24T07:13:54;13.80;71.50
9057;DHT22;4563;54.756;9.400;2023-04-24T07:16:21;13.80;71.50
9057;DHT22;4563;54.756;9.400;2023-04-24T07:18:48;13.80;71.30
9057;DHT22;4563;54.756;9.400;2023-04-24T07:21:15;13.90;71.80
9057;DHT22;4563;54.756;9.400;2023-04-24T07:23:44;13.90;71.80
9057;DHT22;4563;54.756;9.400;2023-04-24T07:26:11;13.90;71.80
9057;DHT22;4563;54.756;9.400;2023-04-24T07:28:37;13.90;71.90
9057;DHT22;4563;54.756;9.400;2023-04-24T07:31:05;13.90;71.80
9057;DHT22;4563;54.756;9.400;2023-04-24T07:33:31;14.00;72.30
9057;DHT22;4563;54.756;9.400;2023-04-24T07:35:58;13.90;72.10
9057;DHT22;4563;54.756;9.400;2023-04-24T07:38:29;14.00;72.30
9057;DHT22;4563;54.756;9.400;2023-04-24T07:40:58;14.00;71.90
9057;DHT22;4563;54.756;9.400;2023-04-24T07:43:25;14.00;71.90
9057;DHT22;4563;54.756;9.400;2023-04-24T07:45:52;14.00;72.00
9057;DHT22;4563;54.756;9.400;2023-04-24T07:48:19;14.00;71.80
9057;DHT22;4563;54.756;9.400;2023-04-24T07:50:47;13.90;71.80
9057;DHT22;4563;54.756;9.400;2023-04-24T07:53:14;14.00;71.90
9057;DHT22;4563;54.756;9.400;2023-04-24T07:55:41;14.00;72.30
9057;DHT22;4563;54.756;9.400;2023-04-24T07:58:09;14.10;72.40
9057;DHT22;4563;54.756;9.400;2023-04-24T08:00:38;14.10;72.40
9057;DHT22;4563;54.756;9.400;2023-04-24T08:03:05;14.10;72.60
9057;DHT22;4563;54.756;9.400;2023-04-24T08:05:34;14.20;72.70
9057;DHT22;4563;54.756;9.400;2023-04-24T08:08:01;14.10;72.50
9057;DHT22;4563;54.756;9.400;2023-04-24T08:10:28;14.20;72.60
9057;DHT22;4563;54.756;9.400;2023-04-24T08:12:54;14.20;72.80
9057;DHT22;4563;54.756;9.400;2023-04-24T08:15:23;14.30;73.00
9057;DHT22;4563;54.756;9.400;2023-04-24T08:17:50;14.30;73.20
9057;DHT22;4563;54.756;9.400;2023-04-24T08:20:17;14.40;73.40
9057;DHT22;4563;54.756;9.400;2023-04-24T08:22:44;14.40;73.50
9057;DHT22;4563;54.756;9.400;2023-04-24T08:25:13;14.40;73.60
9057;DHT22;4563;54.756;9.400;2023-04-24T08:27:39;14.50;73.50
9057;DHT22;4563;54.756;9.400;2023-04-24T08:30:07;14.50;73.00
9057;DHT22;4563;54.756;9.400;2023-04-24T08:32:36;14.50;73.30
9057;DHT22;4563;54.756;9.400;2023-04-24T08:35:03;14.50;73.20
9057;DHT22;4563;54.756;9.400;2023-04-24T08:37:30;14.60;72.90
9057;DHT22;4563;54.756;9.400;2023-04-24T08:39:57;14.60;72.70
9057;DHT22;4563;54.756;9.400;2023-04-24T08:42:23;14.60;72.80
9057;DHT22;4563;54.756;9.400;2023-04-24T08:44:51;14.60;72.50
9057;DHT22;4563;54.756;9.400;2023-04-24T08:47:18;14.60;73.10
9057;DHT22;4563;54.756;9.400;2023-04-24T08:49:48;14.60;72.60
9057;DHT22;4563;54.756;9.400;2023-04-24T08:52:17;14.60;72.50
9057;DHT22;4563;54.756;9.400;2023-04-24T08:54:48;14.60;72.50
9057;DHT22;4563;54.756;9.400;2023-04-24T08:57:15;14.60;72.20
9057;DHT22;4563;54.756;9.400;2023-04-24T08:59:43;14.60;72.50
9057;DHT22;4563;54.756;9.400;2023-04-24T09:02:11;14.60;72.50
9057;DHT22;4563;54.756;9.400;2023-04-24T09:04:39;14.60;72.60
9057;DHT22;4563;54.756;9.400;2023-04-24T09:07:10;14.60;72.70
9057;DHT22;4563;54.756;9.400;2023-04-24T09:09:38;14.60;72.50
9057;DHT22;4563;54.756;9.400;2023-04-24T09:12:06;14.60;72.30
9057;DHT22;4563;54.756;9.400;2023-04-24T09:14:35;14.60;72.50
9057;DHT22;4563;54.756;9.400;2023-04-24T09:17:05;14.60;72.70
9057;DHT22;4563;54.756;9.400;2023-04-24T09:19:32;14.60;72.80
9057;DHT22;4563;54.756;9.400;2023-04-24T09:21:59;14.60;72.80
9057;DHT22;4563;54.756;9.400;2023-04-24T09:24:27;14.60;72.90
9057;DHT22;4563;54.756;9.400;2023-04-24T09:26:57;14.60;72.90
9057;DHT22;4563;54.756;9.400;2023-04-24T09:29:24;14.50;72.80
9057;DHT22;4563;54.756;9.400;2023-04-24T09:31:51;14.50;72.80
9057;DHT22;4563;54.756;9.400;2023-04-24T09:34:21;14.50;72.80
9057;DHT22;4563;54.756;9.400;2023-04-24T09:36:48;14.50;72.90
9057;DHT22;4563;54.756;9.400;2023-04-24T09:39:16;14.50;73.00
9057;DHT22;4563;54.756;9.400;2023-04-24T09:41:48;14.50;73.10
9057;DHT22;4563;54.756;9.400;2023-04-24T09:44:16;14.50;72.80
9057;DHT22;4563;54.756;9.400;2023-04-24T09:46:45;14.50;73.10
9057;DHT22;4563;54.756;9.400;2023-04-24T09:49:16;14.50;73.20
9057;DHT22;4563;54.756;9.400;2023-04-24T09:51:43;14.50;73.30
9057;DHT22;4563;54.756;9.400;2023-04-24T09:54:14;14.50;73.10
9057;DHT22;4563;54.756;9.400;2023-04-24T09:56:43;14.50;73.30
9057;DHT22;4563;54.756;9.400;2023-04-24T09:59:13;14.40;73.30
9057;DHT22;4563;54.756;9.400;2023-04-24T10:01:40;14.50;73.60
9057;DHT22;4563;54.756;9.400;2023-04-24T10:04:20;14.40;73.70
9057;DHT22;4563;54.756;9.400;2023-04-24T10:06:49;14.50;73.80
9057;DHT22;4563;54.756;9.400;2023-04-24T10:09:16;14.50;73.80
9057;DHT22;4563;54.756;9.400;2023-04-24T10:11:45;14.40;73.70
9057;DHT22;4563;54.756;9.400;2023-04-24T10:14:15;14.50;74.10
9057;DHT22;4563;54.756;9.400;2023-04-24T10:16:43;14.40;73.60
9057;DHT22;4563;54.756;9.400;2023-04-24T10:19:12;14.40;73.80
9057;DHT22;4563;54.756;9.400;2023-04-24T10:21:40;14.50;73.90
9057;DHT22;4563;54.756;9.400;2023-04-24T10:24:12;14.40;74.10
9057;DHT22;4563;54.756;9.400;2023-04-24T10:26:40;14.50;74.30
9057;DHT22;4563;54.756;9.400;2023-04-24T10:29:08;14.50;74.30
9057;DHT22;4563;54.756;9.400;2023-04-24T10:31:39;14.50;74.40
9057;DHT22;4563;54.756;9.400;2023-04-24T10:34:08;14.50;74.30
9057;DHT22;4563;54.756;9.400;2023-04-24T10:36:39;14.40;74.40
9057;DHT22;4563;54.756;9.400;2023-04-24T10:39:09;14.50;74.60
9057;DHT22;4563;54.756;9.400;2023-04-24T10:41:38;14.50;74.40
9057;DHT22;4563;54.756;9.400;2023-04-24T10:44:06;14.50;74.40
9057;DHT22;4563;54.756;9.400;2023-04-24T10:46:34;14.40;74.30
9057;DHT22;4563;54.756;9.400;2023-04-24T10:49:05;14.40;74.40
9057;DHT22;4563;54.756;9.400;2023-04-24T10:51:45;14.40;74.40
9057;DHT22;4563;54.756;9.400;2023-04-24T10:54:23;14.40;74.00
9057;DHT22;4563;54.756;9.400;2023-04-24T10:56:51;14.40;74.10
9057;DHT22;4563;54.756;9.400;2023-04-24T10:59:24;14.40;74.40
9057;DHT22;4563;54.756;9.400;2023-04-24T11:01:53;14.40;74.50
9057;DHT22;4563;54.756;9.400;2023-04-24T11:04:31;14.40;74.30
9057;DHT22;4563;54.756;9.400;2023-04-24T11:06:58;14.40;74.20
9057;DHT22;4563;54.756;9.400;2023-04-24T11:09:27;14.40;73.90
9057;DHT22;4563;54.756;9.400;2023-04-24T11:12:03;14.40;74.20
9057;DHT22;4563;54.756;9.400;2023-04-24T11:15:01;14.40;74.30
9057;DHT22;4563;54.756;9.400;2023-04-24T11:17:32;14.40;74.00
9057;DHT22;4563;54.756;9.400;2023-04-24T11:20:03;14.40;74.40
9057;DHT22;4563;54.756;9.400;2023-04-24T11:22:33;14.40;74.00
9057;DHT22;4563;54.756;9.400;2023-04-24T11:25:01;14.30;73.60
9057;DHT22;4563;54.756;9.400;2023-04-24T11:27:30;14.30;74.10
9057;DHT22;4563;54.756;9.400;2023-04-24T11:30:00;14.30;73.70
9057;DHT22;4563;54.756;9.400;2023-04-24T11:32:28;14.30;73.30
9057;DHT22;4563;54.756;9.400;2023-04-24T11:34:58;14.20;73.10
9057;DHT22;4563;54.756;9.400;2023-04-24T11:37:28;14.20;73.10
9057;DHT22;4563;54.756;9.400;2023-04-24T11:39:58;14.30;73.50
9057;DHT22;4563;54.756;9.400;2023-04-24T11:42:33;14.20;73.10
9057;DHT22;4563;54.756;9.400;2023-04-24T11:45:00;14.30;73.40
9057;DHT22;4563;54.756;9.400;2023-04-24T11:47:28;14.20;73.20
9057;DHT22;4563;54.756;9.400;2023-04-24T11:49:56;14.20;73.10
9057;DHT22;4563;54.756;9.400;2023-04-24T11:52:23;14.20;73.10
9057;DHT22;4563;54.756;9.400;2023-04-24T11:54:51;14.20;73.00
9057;DHT22;4563;54.756;9.400;2023-04-24T11:57:20;14.20;73.00
9057;DHT22;4563;54.756;9.400;2023-04-24T11:59:48;14.20;73.40
9057;DHT22;4563;54.756;9.400;2023-04-24T12:02:21;14.20;73.00
9057;DHT22;4563;54.756;9.400;2023-04-24T12:04:48;14.20;73.10
9057;DHT22;4563;54.756;9.400;2023-04-24T12:07:15;14.20;73.00
9057;DHT22;4563;54.756;9.400;2023-04-24T12:09:43;14.20;73.10
9057;DHT22;4563;54.756;9.400;2023-04-24T12:12:13;14.20;73.40
9057;DHT22;4563;54.756;9.400;2023-04-24T12:14:48;14.20;73.40
9057;DHT22;4563;54.756;9.400;2023-04-24T12:17:16;14.20;73.20
9057;DHT22;4563;54.756;9.400;2023-04-24T12:19:47;14.20;73.70
9057;DHT22;4563;54.756;9.400;2023-04-24T12:22:14;14.30;73.30
9057;DHT22;4563;54.756;9.400;2023-04-24T12:25:00;14.30;73.50
9057;DHT22;4563;54.756;9.400;2023-04-24T12:27:30;14.20;72.70
9057;DHT22;4563;54.756;9.400;2023-04-24T12:29:59;14.30;73.80
9057;DHT22;4563;54.756;9.400;2023-04-24T12:32:27;14.20;73.40
9057;DHT22;4563;54.756;9.400;2023-04-24T12:34:55;14.30;73.50
9057;DHT22;4563;54.756;9.400;2023-04-24T12:37:23;14.30;73.30
9057;DHT22;4563;54.756;9.400;2023-04-24T12:40:01;14.30;73.60
9057;DHT22;4563;54.756;9.400;2023-04-24T12:42:30;14.30;73.20
9057;DHT22;4563;54.756;9.400;2023-04-24T12:44:58;14.30;73.80
9057;DHT22;4563;54.756;9.400;2023-04-24T12:47:27;14.40;74.00
9057;DHT22;4563;54.756;9.400;2023-04-24T12:49:53;14.40;74.90
9057;DHT22;4563;54.756;9.400;2023-04-24T12:52:21;14.40;74.20
9057;DHT22;4563;54.756;9.400;2023-04-24T12:54:49;14.40;74.20
9057;DHT22;4563;54.756;9.400;2023-04-24T12:57:16;14.40;74.40
9057;DHT22;4563;54.756;9.400;2023-04-24T12:59:45;14.40;74.50
9057;DHT22;4563;54.756;9.400;2023-04-24T13:02:12;14.40;74.60
9057;DHT22;4563;54.756;9.400;2023-04-24T13:04:43;14.40;74.50
9057;DHT22;4563;54.756;9.400;2023-04-24T13:07:10;14.40;74.60
9057;DHT22;4563;54.756;9.400;2023-04-24T13:09:38;14.40;74.60
9057;DHT22;4563;54.756;9.400;2023-04-24T13:12:05;14.40;74.70
9057;DHT22;4563;54.756;9.400;2023-04-24T13:14:32;14.40;74.80
9057;DHT22;4563;54.756;9.400;2023-04-24T13:17:00;14.40;74.80
9057;DHT22;4563;54.756;9.400;2023-04-24T13:19:28;14.40;74.90
9057;DHT22;4563;54.756;9.400;2023-04-24T13:21:56;14.40;74.90
9057;DHT22;4563;54.756;9.400;2023-04-24T13:24:24;14.40;75.10
9057;DHT22;4563;54.756;9.400;2023-04-24T13:26:55;14.40;75.20
9057;DHT22;4563;54.756;9.400;2023-04-24T13:29:23;14.40;75.30
9057;DHT22;4563;54.756;9.400;2023-04-24T13:31:51;14.40;75.30
9057;DHT22;4563;54.756;9.400;2023-04-24T13:34:21;14.40;75.30
9057;DHT22;4563;54.756;9.400;2023-04-24T13:36:48;14.50;75.40
9057;DHT22;4563;54.756;9.400;2023-04-24T13:39:15;14.50;75.40
9057;DHT22;4563;54.756;9.400;2023-04-24T13:41:42;14.50;75.30
9057;DHT22;4563;54.756;9.400;2023-04-24T13:44:13;14.50;75.30
9057;DHT22;4563;54.756;9.400;2023-04-24T13:46:40;14.50;75.30
9057;DHT22;4563;54.756;9.400;2023-04-24T13:49:08;14.60;76.00
9057;DHT22;4563;54.756;9.400;2023-04-24T13:51:36;14.60;75.30
9057;DHT22;4563;54.756;9.400;2023-04-24T13:54:03;14.60;75.00
9057;DHT22;4563;54.756;9.400;2023-04-24T13:56:30;14.60;74.80
9057;DHT22;4563;54.756;9.400;2023-04-24T13:59:11;14.70;74.50
9057;DHT22;4563;54.756;9.400;2023-04-24T14:01:41;14.70;74.00
9057;DHT22;4563;54.756;9.400;2023-04-24T14:04:11;14.70;74.00
9057;DHT22;4563;54.756;9.400;2023-04-24T14:06:40;14.70;74.00
9057;DHT22;4563;54.756;9.400;2023-04-24T14:09:12;14.70;73.70
9057;DHT22;4563;54.756;9.400;2023-04-24T14:11:42;14.70;73.50
9057;DHT22;4563;54.756;9.400;2023-04-24T14:14:13;14.70;73.20
9057;DHT22;4563;54.756;9.400;2023-04-24T14:16:40;14.80;73.10
9057;DHT22;4563;54.756;9.400;2023-04-24T14:19:08;14.80;73.10
9057;DHT22;4563;54.756;9.400;2023-04-24T14:21:35;14.80;73.00
9057;DHT22;4563;54.756;9.400;2023-04-24T14:24:04;14.80;73.00
9057;DHT22;4563;54.756;9.400;2023-04-24T14:26:48;14.80;73.00
9057;DHT22;4563;54.756;9.400;2023-04-24T14:29:36;14.80;72.70
9057;DHT22;4563;54.756;9.400;2023-04-24T14:32:07;14.80;72.60
9057;DHT22;4563;54.756;9.400;2023-04-24T14:34:35;14.80;72.50
9057;DHT22;4563;54.756;9.400;2023-04-24T14:37:03;14.80;72.30
9057;DHT22;4563;54.756;9.400;2023-04-24T14:39:39;14.90;72.40
9057;DHT22;4563;54.756;9.400;2023-04-24T14:42:07;14.80;72.00
9057;DHT22;4563;54.756;9.400;2023-04-24T14:44:34;14.80;72.00
9057;DHT22;4563;54.756;9.400;2023-04-24T14:47:01;14.90;72.10
9057;DHT22;4563;54.756;9.400;2023-04-24T14:49:28;14.80;71.90
9057;DHT22;4563;54.756;9.400;2023-04-24T14:51:55;14.80;71.90
9057;DHT22;4563;54.756;9.400;2023-04-24T14:54:22;14.80;72.00
9057;DHT22;4563;54.756;9.400;2023-04-24T14:56:50;14.80;72.00
9057;DHT22;4563;54.756;9.400;2023-04-24T14:59:17;14.80;71.90
9057;DHT22;4563;54.756;9.400;2023-04-24T15:01:45;14.80;71.90
9057;DHT22;4563;54.756;9.400;2023-04-24T15:04:11;14.80;72.00
9057;DHT22;4563;54.756;9.400;2023-04-24T15:06:38;14.80;72.10
9057;DHT22;4563;54.756;9.400;2023-04-24T15:09:05;14.70;72.10
9057;DHT22;4563;54.756;9.400;2023-04-24T15:11:32;14.70;72.10
9057;DHT22;4563;54.756;9.400;2023-04-24T15:14:00;14.70;72.20
9057;DHT22;4563;54.756;9.400;2023-04-24T15:16:27;14.70;72.30
9057;DHT22;4563;54.756;9.400;2023-04-24T15:18:57;14.70;72.20
9057;DHT22;4563;54.756;9.400;2023-04-24T15:21:28;14.70;72.00
9057;DHT22;4563;54.756;9.400;2023-04-24T15:23:55;14.70;72.40
9057;DHT22;4563;54.756;9.400;2023-04-24T15:26:27;14.60;72.50
9057;DHT22;4563;54.756;9.400;2023-04-24T15:28:54;14.60;72.60
9057;DHT22;4563;54.756;9.400;2023-04-24T15:31:29;14.60;72.60
9057;DHT22;4563;54.756;9.400;2023-04-24T15:33:55;14.50;72.50
9057;DHT22;4563;54.756;9.400;2023-04-24T15:36:23;14.50;72.50
9057;DHT22;4563;54.756;9.400;2023-04-24T15:38:50;14.50;72.70
9057;DHT22;4563;54.756;9.400;2023-04-24T15:41:17;14.50;72.80
9057;DHT22;4563;54.756;9.400;2023-04-24T15:43:44;14.50;72.80
9057;DHT22;4563;54.756;9.400;2023-04-24T15:46:11;14.50;72.80
9057;DHT22;4563;54.756;9.400;2023-04-24T15:48:42;14.50;72.80
9057;DHT22;4563;54.756;9.400;2023-04-24T15:51:09;14.50;72.80
9057;DHT22;4563;54.756;9.400;2023-04-24T15:53:36;14.40;72.70
9057;DHT22;4563;54.756;9.400;2023-04-24T15:56:03;14.40;72.70
9057;DHT22;4563;54.756;9.400;2023-04-24T15:58:30;14.40;72.70
9057;DHT22;4563;54.756;9.400;2023-04-24T16:00:57;14.30;72.60
9057;DHT22;4563;54.756;9.400;2023-04-24T16:03:24;14.40;72.70
9057;DHT22;4563;54.756;9.400;2023-04-24T16:05:52;14.30;72.60
9057;DHT22;4563;54.756;9.400;2023-04-24T16:08:19;14.30;72.60